Time;durP1;ratioP1;P1;durP2;ratioP2;P2;SDS_P1;SDS_P2;PMS_P1;PMS_P2;Temp;Humidity;BMP_temperature;BMP_pressure;BME280_temperature;BME280_humidity;BME280_pressure;Samples;Min_cycle;Max_cycle;Signal;HPM_P1;HPM_P2
2022/12/21 00:02:07;;;;;;;0.03;0.03;;;;;;;;;;6163084;23;20111;-91
2022/12/21 00:04:33;;;;;;;0.00;0.00;;;10.20;99.90;;;;;;6163920;23;20039;-91
2022/12/21 00:06:59;;;;;;;0.00;0.00;;;;;;;;;;6162633;23;20009;-92
2022/12/21 00:09:25;;;;;;;0.00;0.00;;;;;;;;;;6164714;23;20066;-91
2022/12/21 00:11:51;;;;;;;0.10;0.10;;;;;;;;;;6162804;23;20442;-90
2022/12/21 00:14:17;;;;;;;0.00;0.00;;;;;;;;;;6163456;23;20009;-89
2022/12/21 00:16:43;;;;;;;0.00;0.00;;;10.20;99.90;;;;;;6164158;23;20005;-91
2022/12/21 00:19:13;;;;;;;0.00;0.00;;;10.30;99.90;;;;;;6165917;23;20001;-92
2022/12/21 00:21:39;;;;;;;0.00;0.00;;;;;;;;;;6161992;23;20008;-90
2022/12/21 00:24:05;;;;;;;0.00;0.00;;;;;;;;;;6164510;23;20008;-92
2022/12/21 00:26:33;;;;;;;0.00;0.00;;;10.30;99.90;;;;;;6160144;23;20004;-91
2022/12/21 00:28:59;;;;;;;0.10;0.10;;;;;;;;;;6163155;23;20077;-91
2022/12/21 00:31:27;;;;;;;0.00;0.00;;;10.30;99.90;;;;;;6162092;23;20058;-91
2022/12/21 00:33:54;;;;;;;0.10;0.10;;;;;;;;;;6163017;23;20009;-90
2022/12/21 00:36:21;;;;;;;0.03;0.03;;;10.30;99.90;;;;;;6164554;23;20013;-91
2022/12/21 00:38:47;;;;;;;0.08;0.08;;;;;;;;;;6164134;23;20015;-91
2022/12/21 00:41:15;;;;;;;0.00;0.00;;;10.30;99.90;;;;;;6164923;23;20024;-92
2022/12/21 00:43:42;;;;;;;0.00;0.00;;;10.30;99.90;;;;;;6163313;23;20001;-92
2022/12/21 00:46:20;;;;;;;0.00;0.00;;;10.30;99.90;;;;;;6164730;23;20005;-92
2022/12/21 00:48:45;;;;;;;0.00;0.00;;;9.90;99.90;;;;;;6164946;23;20009;-90
2022/12/21 00:51:14;;;;;;;0.00;0.00;;;10.20;99.90;;;;;;6164513;23;19997;-90
2022/12/21 00:53:40;;;;;;;0.00;0.00;;;;;;;;;;6165847;23;20048;-91
2022/12/21 00:56:07;;;;;;;0.03;0.03;;;10.20;99.90;;;;;;6165969;23;20334;-92
2022/12/21 00:58:34;;;;;;;0.00;0.00;;;10.20;99.90;;;;;;6164416;23;20429;-91
2022/12/21 01:01:07;;;;;;;0.00;0.00;;;10.20;99.90;;;;;;6165280;23;19997;-92
2022/12/21 01:03:33;;;;;;;0.10;0.10;;;;;;;;;;6163231;23;20000;-91
2022/12/21 01:05:59;;;;;;;0.00;0.00;;;;;;;;;;6166836;23;20032;-91
2022/12/21 01:08:25;;;;;;;0.10;0.10;;;10.30;99.90;;;;;;6167382;23;20002;-90
2022/12/21 01:11:02;;;;;;;0.10;0.10;;;10.30;99.90;;;;;;6164369;23;20091;-90
2022/12/21 01:13:30;;;;;;;0.00;0.00;;;10.20;99.90;;;;;;6165989;23;19997;-90
2022/12/21 01:15:56;;;;;;;0.00;0.00;;;;;;;;;;6165053;23;20004;-90
2022/12/21 01:18:22;;;;;;;0.05;0.05;;;;;;;;;;6165778;23;20072;-90
2022/12/21 01:20:51;;;;;;;0.10;0.10;;;10.20;99.90;;;;;;6165039;23;20441;-90
2022/12/21 01:23:17;;;;;;;0.00;0.00;;;;;;;;;;6167080;23;20013;-91
2022/12/21 01:25:43;;;;;;;0.00;0.00;;;10.30;99.90;;;;;;6163037;23;20009;-90
2022/12/21 01:28:09;;;;;;;0.00;0.00;;;;;;;;;;6164377;23;20016;-90
2022/12/21 01:30:36;;;;;;;0.00;0.00;;;;;;;;;;6164031;23;20082;-92
2022/12/21 01:33:02;;;;;;;0.10;0.10;;;;;;;;;;6163617;23;20005;-91
2022/12/21 01:35:28;;;;;;;0.08;0.08;;;;;;;;;;6165135;23;20457;-91
2022/12/21 01:37:54;;;;;;;0.05;0.05;;;;;;;;;;6166029;23;20403;-91
2022/12/21 01:40:20;;;;;;;0.00;0.00;;;;;;;;;;6167079;23;20096;-92
2022/12/21 01:42:45;;;;;;;0.00;0.00;;;;;;;;;;6163270;23;20012;-91
2022/12/21 01:45:30;;;;;;;0.00;0.00;;;10.30;99.90;;;;;;6165898;23;20024;-90
2022/12/21 01:48:02;;;;;;;0.00;0.00;;;10.40;99.90;;;;;;6164964;23;20017;-90
2022/12/21 01:50:48;;;;;;;0.00;0.00;;;10.50;99.90;;;;;;6166199;23;20009;-89
2022/12/21 01:53:27;;;;;;;0.00;0.00;;;10.40;99.90;;;;;;6165102;23;20055;-92
2022/12/21 01:55:55;;;;;;;0.00;0.00;;;10.40;99.90;;;;;;6165025;23;20005;-92
2022/12/21 01:58:24;;;;;;;0.00;0.00;;;10.50;99.90;;;;;;6162774;23;20043;-90
2022/12/21 02:00:50;;;;;;;0.00;0.00;;;;;;;;;;6171343;23;20005;-94
2022/12/21 02:03:19;;;;;;;0.00;0.00;;;10.40;99.90;;;;;;6178039;23;20557;-92
2022/12/21 02:05:54;;;;;;;0.10;0.10;;;10.40;99.90;;;;;;6164133;23;20001;-92
2022/12/21 02:08:20;;;;;;;0.10;0.10;;;10.40;99.90;;;;;;6162059;23;20012;-91
2022/12/21 02:10:46;;;;;;;0.00;0.00;;;;;;;;;;6161846;23;20088;-91
2022/12/21 02:13:14;;;;;;;0.00;0.00;;;10.30;99.90;;;;;;6161559;23;20009;-91
2022/12/21 02:15:58;;;;;;;0.00;0.00;;;10.40;99.90;;;;;;6161996;23;20445;-91
2022/12/21 02:18:40;;;;;;;0.00;0.00;;;10.20;99.90;;;;;;6161504;23;20454;-91
2022/12/21 02:21:06;;;;;;;0.00;0.00;;;;;;;;;;6162257;23;20009;-91
2022/12/21 02:24:28;;;;;;;0.00;0.00;;;10.30;99.90;;;;;;6160609;23;20041;-91
2022/12/21 02:27:13;;;;;;;0.00;0.00;;;10.40;99.90;;;;;;6066476;23;20108;-91
2022/12/21 02:29:51;;;;;;;0.00;0.00;;;10.30;99.90;;;;;;6182905;23;20013;-90
2022/12/21 02:32:33;;;;;;;0.10;0.10;;;10.30;99.90;;;;;;6160572;23;20001;-92
2022/12/21 02:35:18;;;;;;;0.10;0.10;;;10.80;99.90;;;;;;6160513;23;20005;-93
2022/12/21 02:38:04;;;;;;;0.10;0.10;;;10.30;99.90;;;;;;6162171;23;20068;-91
2022/12/21 02:40:45;;;;;;;0.10;0.10;;;10.30;99.90;;;;;;6159983;23;20008;-91
2022/12/21 02:46:47;;;;;;;0.10;0.10;;;11.60;99.90;;;;;;6188411;23;20104;-92
2022/12/21 02:49:36;;;;;;;0.10;0.10;;;10.30;99.90;;;;;;6150161;23;20020;-92
2022/12/21 02:52:10;;;;;;;0.00;0.00;;;11.40;99.90;;;;;;6145729;23;20036;-91
2022/12/21 02:54:41;;;;;;;0.00;0.00;;;10.40;99.90;;;;;;6161233;23;20070;-90
2022/12/21 02:57:07;;;;;;;0.10;0.10;;;;;;;;;;6163143;23;20088;-91
2022/12/21 02:59:38;;;;;;;0.00;0.00;;;10.30;99.90;;;;;;6160261;23;20445;-90
2022/12/21 03:04:42;;;;;;;0.00;0.00;;;10.30;99.90;;;;;;6209940;23;20072;-96
2022/12/21 03:07:22;;;;;;;0.00;0.00;;;10.30;99.90;;;;;;6185592;23;20000;-95
2022/12/21 03:10:03;;;;;;;0.00;0.00;;;10.30;99.90;;;;;;6181408;23;19990;-95
2022/12/21 03:12:51;;;;;;;0.00;0.00;;;10.30;99.90;;;;;;6156141;23;19989;-94
2022/12/21 03:15:33;;;;;;;0.00;0.00;;;10.30;99.90;;;;;;6155292;23;20048;-95
2022/12/21 03:18:22;;;;;;;0.10;0.10;;;10.20;99.90;;;;;;6155679;23;19998;-96
2022/12/21 03:21:07;;;;;;;0.10;0.10;;;10.30;99.90;;;;;;6154505;23;20006;-95
2022/12/21 03:24:03;;;;;;;0.00;0.00;;;10.30;99.90;;;;;;6155929;23;20041;-94
2022/12/21 03:26:36;;;;;;;0.00;0.00;;;10.30;99.90;;;;;;6154825;23;20006;-94
2022/12/21 03:29:04;;;;;;;0.10;0.10;;;10.30;99.90;;;;;;6155124;23;19994;-95
2022/12/21 03:31:34;;;;;;;0.10;0.10;;;10.20;99.90;;;;;;6155487;23;20000;-95
2022/12/21 03:34:23;;;;;;;0.00;0.00;;;10.30;99.90;;;;;;6155557;23;19998;-96
2022/12/21 03:36:56;;;;;;;0.10;0.10;;;10.30;99.90;;;;;;6130049;23;20021;-95
2022/12/21 03:39:24;;;;;;;0.00;0.00;;;10.30;99.90;;;;;;6157581;23;20607;-94
2022/12/21 03:42:07;;;;;;;0.00;0.00;;;10.40;99.90;;;;;;6155406;23;19994;-95
2022/12/21 03:44:56;;;;;;;0.00;0.00;;;12.40;99.90;;;;;;6156965;23;20404;-95
2022/12/21 03:47:43;;;;;;;0.00;0.00;;;10.40;99.90;;;;;;6157314;23;19989;-95
2022/12/21 03:50:15;;;;;;;0.00;0.00;;;10.30;99.90;;;;;;6157429;23;19993;-95
2022/12/21 03:52:50;;;;;;;0.00;0.00;;;10.40;99.90;;;;;;6155472;23;19997;-94
2022/12/21 03:55:33;;;;;;;0.00;0.00;;;10.40;99.90;;;;;;6157749;23;20010;-94
2022/12/21 03:58:00;;;;;;;0.00;0.00;;;10.30;99.90;;;;;;6156513;23;20017;-95
2022/12/21 04:00:31;;;;;;;0.05;0.05;;;10.30;99.90;;;;;;6157738;23;20005;-95
2022/12/21 04:03:08;;;;;;;0.00;0.00;;;10.30;99.90;;;;;;6154583;23;20013;-95
2022/12/21 04:05:41;;;;;;;0.10;0.10;;;10.20;99.90;;;;;;6156035;23;19989;-95
2022/12/21 04:08:07;;;;;;;0.00;0.00;;;;;;;;;;6156990;23;20025;-95
2022/12/21 04:10:33;;;;;;;0.08;0.08;;;;;;;;;;6155789;23;20065;-95
2022/12/21 04:12:59;;;;;;;0.00;0.00;;;;;;;;;;6156171;23;20002;-95
2022/12/21 04:18:12;;;;;;;0.00;0.00;;;;;;;;;;6182357;23;20029;-95
2022/12/21 04:20:38;;;;;;;0.00;0.00;;;;;;;;;;6154968;23;19989;-94
2022/12/21 04:28:33;;;;;;;0.00;0.00;;;;;;;;;;6181203;23;20004;-94
2022/12/21 04:31:00;;;;;;;0.10;0.10;;;10.20;99.90;;;;;;6154576;23;19998;-96
2022/12/21 04:33:28;;;;;;;0.00;0.00;;;10.20;99.90;;;;;;6155240;23;20017;-95
2022/12/21 04:38:43;;;;;;;0.10;0.10;;;10.20;99.90;;;;;;6181204;23;20016;-93
2022/12/21 04:41:10;;;;;;;0.05;0.05;;;10.20;99.90;;;;;;6156727;23;19996;-94
2022/12/21 04:43:37;;;;;;;0.10;0.10;;;10.30;99.90;;;;;;6154277;23;20028;-95
2022/12/21 04:46:07;;;;;;;0.08;0.08;;;10.30;99.90;;;;;;6155705;23;20021;-95
2022/12/21 04:48:34;;;;;;;0.00;0.00;;;10.30;99.90;;;;;;6155119;23;19993;-96
2022/12/21 04:51:19;;;;;;;0.00;0.00;;;10.30;99.90;;;;;;6154629;23;19993;-95
2022/12/21 04:53:45;;;;;;;0.00;0.00;;;;;;;;;;6156067;23;20024;-95
2022/12/21 04:56:11;;;;;;;0.03;0.03;;;;;;;;;;6156870;23;20004;-95
2022/12/21 04:58:38;;;;;;;0.05;0.05;;;10.20;99.90;;;;;;6156570;23;20010;-95
2022/12/21 05:01:11;;;;;;;0.00;0.00;;;10.20;99.90;;;;;;6154845;23;19988;-95
2022/12/21 05:03:37;;;;;;;0.05;0.05;;;;;;;;;;6155401;23;20012;-95
2022/12/21 05:06:03;;;;;;;0.10;0.10;;;;;;;;;;6156128;23;20037;-95
2022/12/21 05:08:30;;;;;;;0.10;0.10;;;;;;;;;;6155598;23;19998;-95
2022/12/21 05:10:56;;;;;;;0.10;0.10;;;;;;;;;;6149951;23;19990;-95
2022/12/21 05:13:22;;;;;;;0.10;0.10;;;;;;;;;;6155375;23;20079;-95
2022/12/21 05:15:48;;;;;;;0.10;0.10;;;;;;;;;;6155225;23;20010;-96
2022/12/21 05:18:14;;;;;;;0.10;0.10;;;;;;;;;;6156537;23;20020;-95
2022/12/21 05:20:40;;;;;;;0.10;0.10;;;;;;;;;;6156372;23;19998;-94
2022/12/21 05:23:06;;;;;;;0.10;0.10;;;;;;;;;;6155069;23;19993;-95
2022/12/21 05:25:32;;;;;;;0.00;0.00;;;;;;;;;;6156387;23;19990;-95
2022/12/21 05:27:59;;;;;;;0.10;0.10;;;;;;;;;;6155482;23;20009;-95
2022/12/21 05:30:25;;;;;;;0.00;0.00;;;;;;;;;;6182164;23;19998;-96
2022/12/21 05:32:51;;;;;;;0.00;0.00;;;;;;;;;;6156643;23;20004;-95
2022/12/21 05:35:17;;;;;;;0.10;0.10;;;;;;;;;;6155847;23;19997;-96
2022/12/21 05:37:43;;;;;;;0.00;0.00;;;;;;;;;;6155860;23;20061;-95
2022/12/21 05:40:09;;;;;;;0.00;0.00;;;;;;;;;;6155588;23;20024;-96
2022/12/21 05:42:38;;;;;;;0.10;0.10;;;;;;;;;;6153267;23;20056;-92
2022/12/21 06:00:37;;;;;;;0.10;0.10;;;;;;;;;;6190851;23;20057;-94
2022/12/21 06:03:04;;;;;;;0.10;0.10;;;;;;;;;;6185754;23;20020;-95
2022/12/21 06:46:56;;;;;;;0.00;0.00;;;;;;;;;;6180970;23;20001;-93
2022/12/21 07:07:29;;;;;;;0.10;0.10;;;;;;;;;;6180637;23;20089;-95
2022/12/21 07:09:56;;;;;;;0.00;0.00;;;;;;;;;;6156210;23;20017;-94
2022/12/21 07:12:24;;;;;;;0.00;0.00;;;;;;;;;;6159340;23;19992;-95
2022/12/21 07:14:50;;;;;;;0.00;0.00;;;;;;;;;;6159582;23;20005;-95
2022/12/21 07:37:59;;;;;;;0.10;0.10;;;;;;;;;;6183550;23;20020;-95
2022/12/21 07:40:25;;;;;;;0.10;0.10;;;;;;;;;;6164700;23;20013;-95
2022/12/21 07:42:51;;;;;;;0.00;0.00;;;;;;;;;;6188099;23;19985;-95
2022/12/21 07:45:17;;;;;;;0.00;0.00;;;;;;;;;;6188216;23;20005;-96
2022/12/21 07:47:48;;;;;;;0.00;0.00;;;9.70;99.90;;;;;;6188620;23;19997;-96
2022/12/21 07:53:03;;;;;;;0.10;0.10;;;;;;;;;;6185178;23;20096;-91
2022/12/21 07:55:29;;;;;;;0.00;0.00;;;9.80;99.90;;;;;;6166450;23;20012;-92
2022/12/21 07:57:55;;;;;;;0.00;0.00;;;;;;;;;;6167098;23;20016;-92
2022/12/21 08:00:22;;;;;;;0.10;0.10;;;;;;;;;;6166531;23;20009;-89
2022/12/21 08:02:48;;;;;;;0.05;0.05;;;10.00;99.90;;;;;;6167726;23;20052;-90
2022/12/21 08:05:13;;;;;;;0.00;0.00;;;9.70;99.90;;;;;;6163862;23;20038;-91
2022/12/21 08:07:39;;;;;;;0.00;0.00;;;;;;;;;;6164231;23;20017;-90
2022/12/21 08:10:05;;;;;;;0.03;0.03;;;9.80;99.90;;;;;;6166974;23;20036;-92
2022/12/21 08:12:31;;;;;;;0.00;0.00;;;;;;;;;;6167324;23;20016;-91
2022/12/21 08:14:58;;;;;;;0.00;0.00;;;;;;;;;;6167081;23;20375;-92
2022/12/21 08:17:23;;;;;;;0.00;0.00;;;;;;;;;;6166540;23;20009;-92
2022/12/21 08:19:49;;;;;;;0.00;0.00;;;;;;;;;;6168597;23;20016;-92
2022/12/21 08:22:15;;;;;;;0.10;0.10;;;;;;;;;;6163275;23;20032;-89
2022/12/21 08:24:41;;;;;;;0.08;0.08;;;;;;;;;;6166999;23;20013;-93
2022/12/21 08:27:07;;;;;;;0.05;0.05;;;;;;;;;;6165392;23;20016;-90
2022/12/21 08:29:33;;;;;;;0.00;0.00;;;;;;;;;;6166582;23;20057;-93
2022/12/21 08:31:59;;;;;;;0.00;0.00;;;;;;;;;;6165859;23;20020;-93
2022/12/21 08:34:25;;;;;;;0.00;0.00;;;;;;;;;;6167590;23;20001;-93
2022/12/21 08:36:51;;;;;;;0.00;0.00;;;;;;;;;;6165642;23;20560;-92
2022/12/21 08:39:17;;;;;;;0.03;0.03;;;;;;;;;;6167889;23;20001;-91
2022/12/21 08:41:43;;;;;;;0.08;0.08;;;;;;;;;;6166780;23;20389;-90
2022/12/21 08:44:09;;;;;;;0.10;0.10;;;;;;;;;;6167173;23;20063;-91
2022/12/21 08:46:35;;;;;;;0.00;0.00;;;;;;;;;;6166344;23;20508;-90
2022/12/21 08:49:01;;;;;;;0.10;0.10;;;;;;;;;;6168961;23;20009;-92
2022/12/21 08:51:27;;;;;;;0.00;0.00;;;;;;;;;;6169220;23;20076;-90
2022/12/21 08:53:53;;;;;;;0.00;0.00;;;;;;;;;;6169604;23;20065;-91
2022/12/21 08:56:20;;;;;;;0.10;0.10;;;;;;;;;;6168043;23;20092;-90
2022/12/21 08:58:46;;;;;;;0.00;0.00;;;;;;;;;;6169547;23;20086;-91
2022/12/21 09:01:12;;;;;;;0.00;0.00;;;;;;;;;;6168760;23;20009;-90
2022/12/21 09:03:38;;;;;;;0.00;0.00;;;;;;;;;;6169376;23;20013;-90
2022/12/21 09:06:04;;;;;;;0.00;0.00;;;;;;;;;;6166308;23;20450;-91
2022/12/21 09:08:31;;;;;;;0.00;0.00;;;;;;;;;;6158502;23;20013;-91
2022/12/21 09:11:05;;;;;;;0.00;0.00;;;10.20;99.90;;;;;;6164519;23;20021;-91
2022/12/21 09:13:31;;;;;;;0.10;0.10;;;9.40;99.90;;;;;;6166321;23;20012;-92
2022/12/21 09:15:56;;;;;;;0.00;0.00;;;9.70;99.90;;;;;;6166006;23;20005;-92
2022/12/21 09:18:22;;;;;;;0.00;0.00;;;;;;;;;;6165350;23;20009;-92
2022/12/21 09:20:49;;;;;;;0.00;0.00;;;;;;;;;;6165558;23;20336;-90
2022/12/21 09:23:15;;;;;;;0.10;0.10;;;;;;;;;;6165168;23;20001;-91
2022/12/21 09:25:41;;;;;;;0.00;0.00;;;;;;;;;;6166973;23;20363;-93
2022/12/21 09:28:06;;;;;;;0.00;0.00;;;10.30;99.90;;;;;;6166669;23;20011;-93
2022/12/21 09:30:32;;;;;;;0.00;0.00;;;10.30;99.90;;;;;;6164215;23;20032;-91
2022/12/21 09:32:58;;;;;;;0.00;0.00;;;;;;;;;;6167766;23;20005;-93
2022/12/21 09:35:24;;;;;;;0.00;0.00;;;;;;;;;;6166170;23;20005;-92
2022/12/21 09:37:50;;;;;;;0.05;0.05;;;10.30;99.90;;;;;;6167180;23;20019;-91
2022/12/21 09:40:18;;;;;;;0.00;0.00;;;10.40;99.90;;;;;;6168025;23;20075;-93
2022/12/21 09:42:59;;;;;;;0.00;0.00;;;10.30;99.90;;;;;;6168465;23;20161;-92
2022/12/21 09:45:47;;;;;;;0.10;0.10;;;10.40;99.90;;;;;;6167287;23;20009;-93
2022/12/21 09:48:30;;;;;;;0.00;0.00;;;10.30;99.90;;;;;;6167940;23;20004;-90
2022/12/21 09:51:12;;;;;;;0.00;0.00;;;10.30;99.90;;;;;;6167377;23;20016;-92
2022/12/21 09:53:51;;;;;;;0.00;0.00;;;10.30;99.90;;;;;;6161363;23;20020;-91
2022/12/21 09:56:23;;;;;;;0.00;0.00;;;10.30;99.90;;;;;;6166028;23;20009;-89
2022/12/21 09:58:51;;;;;;;0.00;0.00;;;10.20;99.90;;;;;;6167737;23;20025;-91
2022/12/21 10:01:20;;;;;;;0.00;0.00;;;10.20;99.90;;;;;;6179509;23;19997;-91
2022/12/21 10:03:53;;;;;;;0.00;0.00;;;10.20;99.90;;;;;;6189384;23;20001;-92
2022/12/21 10:06:43;;;;;;;0.10;0.10;;;11.40;99.90;;;;;;6158911;23;20005;-91
2022/12/21 10:09:11;;;;;;;0.00;0.00;;;10.20;99.90;;;;;;6160521;23;20005;-91
2022/12/21 10:12:15;;;;;;;0.00;0.00;;;10.30;99.90;;;;;;6161368;23;20279;-91
2022/12/21 10:14:59;;;;;;;0.00;0.00;;;10.90;99.90;;;;;;6156921;23;20005;-93
2022/12/21 10:17:25;;;;;;;0.10;0.10;;;;;;;;;;6160792;23;20009;-89
2022/12/21 10:20:07;;;;;;;0.00;0.00;;;10.50;99.90;;;;;;6161422;23;20009;-91
2022/12/21 10:22:37;;;;;;;0.03;0.03;;;10.50;99.90;;;;;;6162225;23;20001;-92
2022/12/21 10:25:17;;;;;;;0.00;0.00;;;10.50;99.90;;;;;;6161555;23;20492;-91
2022/12/21 10:27:58;;;;;;;0.10;0.10;;;10.50;99.90;;;;;;6163234;23;20005;-91
2022/12/21 10:30:24;;;;;;;0.00;0.00;;;;;;;;;;6163229;23;20167;-92
2022/12/21 10:32:50;;;;;;;0.00;0.00;;;10.50;99.90;;;;;;6159711;23;20717;-91
2022/12/21 10:35:33;;;;;;;0.00;0.00;;;12.20;99.90;;;;;;6163268;23;20454;-91
2022/12/21 10:37:59;;;;;;;0.00;0.00;;;10.50;99.90;;;;;;6163845;23;20028;-90
2022/12/21 10:40:27;;;;;;;0.10;0.10;;;10.50;99.90;;;;;;6161548;23;20005;-91
2022/12/21 10:42:54;;;;;;;0.00;0.00;;;10.40;99.90;;;;;;6160895;23;20117;-91
2022/12/21 10:45:22;;;;;;;0.00;0.00;;;10.60;99.90;;;;;;6161041;23;20012;-92
2022/12/21 10:47:48;;;;;;;0.00;0.00;;;;;;;;;;6159964;23;20071;-92
2022/12/21 10:50:19;;;;;;;0.03;0.03;;;10.60;99.90;;;;;;6159869;23;20045;-91
2022/12/21 10:52:45;;;;;;;0.00;0.00;;;;;;;;;;6160072;23;20088;-92
2022/12/21 10:55:17;;;;;;;0.00;0.00;;;10.70;99.90;;;;;;6162064;23;20005;-92
2022/12/21 10:57:43;;;;;;;0.05;0.05;;;;;;;;;;6159933;23;20065;-91
2022/12/21 11:00:30;;;;;;;0.00;0.00;;;10.50;99.90;;;;;;6160500;23;20004;-91
2022/12/21 11:03:00;;;;;;;0.10;0.10;;;10.60;99.90;;;;;;6160900;23;20001;-91
2022/12/21 11:05:31;;;;;;;0.00;0.00;;;10.60;99.90;;;;;;6156541;23;20005;-89
2022/12/21 11:08:21;;;;;;;0.00;0.00;;;10.60;99.90;;;;;;6157054;23;20437;-91
2022/12/21 11:10:50;;;;;;;0.00;0.00;;;10.60;99.90;;;;;;6157385;23;20009;-92
2022/12/21 11:13:17;;;;;;;0.00;0.00;;;10.60;99.90;;;;;;6156850;23;20072;-93
2022/12/21 11:16:02;;;;;;;0.10;0.10;;;10.60;99.90;;;;;;6158955;23;20009;-91
2022/12/21 11:18:36;;;;;;;0.05;0.05;;;10.50;99.90;;;;;;6156185;23;20008;-91
2022/12/21 11:21:04;;;;;;;0.00;0.00;;;10.50;99.90;;;;;;6157380;23;20012;-91
2022/12/21 11:23:30;;;;;;;0.00;0.00;;;;;;;;;;6157520;23;20349;-91
2022/12/21 11:25:57;;;;;;;0.00;0.00;;;;;;;;;;6156174;23;20008;-90
2022/12/21 11:28:23;;;;;;;0.00;0.00;;;;;;;;;;6158392;23;20061;-92
2022/12/21 11:31:04;;;;;;;0.10;0.10;;;10.40;99.90;;;;;;6156781;23;20009;-91
2022/12/21 11:33:30;;;;;;;0.10;0.10;;;;;;;;;;6157538;23;20013;-90
2022/12/21 11:36:16;;;;;;;0.00;0.00;;;10.30;99.90;;;;;;6156409;23;20005;-92
2022/12/21 11:38:42;;;;;;;0.00;0.00;;;;;;;;;;6158004;23;20009;-90
2022/12/21 11:41:21;;;;;;;0.00;0.00;;;10.40;99.90;;;;;;6156322;23;20009;-91
2022/12/21 11:43:49;;;;;;;0.03;0.03;;;10.30;99.90;;;;;;6156943;23;20005;-91
2022/12/21 11:46:28;;;;;;;0.10;0.10;;;10.60;99.90;;;;;;6155994;23;20028;-91
2022/12/21 11:49:30;;;;;;;0.00;0.00;;;10.40;99.90;;;;;;6156185;23;20449;-92
2022/12/21 11:52:25;;;;;;;0.10;0.10;;;10.50;99.90;;;;;;6157850;23;20017;-93
2022/12/21 11:55:22;;;;;;;0.00;0.00;;;10.50;99.90;;;;;;6155170;23;20059;-91
2022/12/21 11:58:06;;;;;;;0.10;0.10;;;10.40;99.90;;;;;;6157613;23;20075;-90
2022/12/21 12:00:48;;;;;;;0.00;0.00;;;10.40;99.90;;;;;;6156277;23;20029;-91
2022/12/21 12:03:56;;;;;;;0.00;0.00;;;10.50;99.90;;;;;;6160480;23;20001;-91
2022/12/21 12:06:40;;;;;;;0.00;0.00;;;10.50;99.90;;;;;;6117204;23;20001;-91
2022/12/21 12:09:43;;;;;;;0.00;0.00;;;10.50;99.90;;;;;;6158425;23;20035;-93
2022/12/21 12:12:17;;;;;;;0.10;0.10;;;10.40;99.90;;;;;;6160179;23;20001;-93
2022/12/21 12:14:43;;;;;;;0.00;0.00;;;;;;;;;;6158534;23;20484;-89
2022/12/21 12:17:09;;;;;;;0.10;0.10;;;;;;;;;;6156582;23;20009;-89
2022/12/21 12:19:48;;;;;;;0.10;0.10;;;10.50;99.90;;;;;;6155380;23;20012;-91
2022/12/21 12:22:29;;;;;;;0.05;0.05;;;10.30;99.90;;;;;;6157408;23;20043;-91
2022/12/21 12:25:29;;;;;;;0.00;0.00;;;10.50;99.90;;;;;;6159030;23;20009;-91
2022/12/21 12:28:31;;;;;;;0.10;0.10;;;10.40;99.90;;;;;;6159153;23;20020;-91
2022/12/21 12:31:27;;;;;;;0.10;0.10;;;10.40;99.90;;;;;;6155534;23;20083;-91
2022/12/21 12:34:33;;;;;;;0.00;0.00;;;10.50;99.90;;;;;;6158385;23;20327;-92
2022/12/21 12:37:26;;;;;;;0.00;0.00;;;10.40;99.90;;;;;;6153326;23;20086;-91
2022/12/21 12:40:13;;;;;;;0.00;0.00;;;11.80;99.90;;;;;;6159103;23;20382;-91
2022/12/21 12:42:51;;;;;;;0.00;0.00;;;10.50;99.90;;;;;;6158345;23;20024;-90
2022/12/21 12:46:05;;;;;;;0.00;0.00;;;10.50;99.90;;;;;;6159201;23;20005;-91
2022/12/21 12:48:48;;;;;;;0.10;0.10;;;10.60;99.90;;;;;;6159660;23;20017;-92
2022/12/21 12:51:27;;;;;;;0.03;0.03;;;10.60;99.90;;;;;;6157754;23;20040;-92
2022/12/21 12:54:05;;;;;;;0.10;0.10;;;10.60;99.90;;;;;;6159004;23;20005;-91
2022/12/21 12:56:43;;;;;;;0.00;0.00;;;10.60;99.90;;;;;;6155355;23;20005;-89
2022/12/21 12:59:36;;;;;;;0.00;0.00;;;10.60;99.90;;;;;;6157052;23;20305;-91
2022/12/21 13:02:21;;;;;;;0.00;0.00;;;10.70;99.90;;;;;;6152911;23;20361;-92
2022/12/21 13:05:10;;;;;;;0.05;0.05;;;10.70;99.90;;;;;;6156231;23;20001;-92
2022/12/21 13:08:01;;;;;;;0.03;0.03;;;10.70;99.90;;;;;;6148179;23;20017;-91
2022/12/21 13:10:54;;;;;;;0.00;0.00;;;10.60;99.90;;;;;;6155913;23;20013;-91
2022/12/21 13:13:49;;;;;;;0.10;0.10;;;10.80;99.90;;;;;;6155113;23;20106;-92
2022/12/21 13:16:53;;;;;;;0.10;0.10;;;10.70;99.90;;;;;;6148620;23;20013;-89
2022/12/21 13:19:22;;;;;;;0.10;0.10;;;10.70;99.90;;;;;;6159563;23;20008;-92
2022/12/21 13:21:51;;;;;;;0.10;0.10;;;10.70;99.90;;;;;;6163470;23;20002;-92
2022/12/21 13:24:28;;;;;;;0.10;0.10;;;10.70;99.90;;;;;;6164126;23;20354;-93
2022/12/21 13:26:59;;;;;;;0.10;0.10;;;10.60;99.90;;;;;;6162431;23;19997;-92
2022/12/21 13:29:30;;;;;;;0.00;0.00;;;10.60;99.90;;;;;;6162236;23;20088;-91
2022/12/21 13:32:10;;;;;;;0.00;0.00;;;10.60;99.90;;;;;;6162374;23;20004;-91
2022/12/21 13:35:08;;;;;;;0.00;0.00;;;10.50;99.90;;;;;;6161786;23;20005;-92
2022/12/21 13:37:38;;;;;;;0.10;0.10;;;10.60;99.90;;;;;;6148261;23;20115;-90
2022/12/21 13:40:36;;;;;;;0.00;0.00;;;10.60;99.90;;;;;;6139173;23;20429;-92
2022/12/21 13:43:21;;;;;;;0.00;0.00;;;10.60;99.90;;;;;;6168995;23;19997;-91
2022/12/21 13:46:03;;;;;;;0.10;0.10;;;10.60;99.90;;;;;;6163443;23;20005;-92
2022/12/21 13:48:37;;;;;;;0.10;0.10;;;10.60;99.90;;;;;;6191189;23;20049;-91
2022/12/21 13:51:32;;;;;;;0.00;0.00;;;10.60;99.90;;;;;;6151802;23;20016;-91
2022/12/21 13:54:23;;;;;;;0.10;0.10;;;10.60;99.90;;;;;;6161611;23;20068;-92
2022/12/21 13:57:10;;;;;;;0.10;0.10;;;10.50;99.90;;;;;;6159187;23;20016;-92
2022/12/21 13:59:41;;;;;;;0.00;0.00;;;10.50;99.90;;;;;;6160838;23;20095;-91
2022/12/21 14:02:37;;;;;;;0.00;0.00;;;10.50;99.90;;;;;;6158978;23;20005;-92
2022/12/21 14:05:24;;;;;;;0.00;0.00;;;10.30;99.90;;;;;;6161725;23;20080;-92
2022/12/21 14:08:16;;;;;;;0.10;0.10;;;10.20;99.90;;;;;;6159584;23;20009;-89
2022/12/21 14:11:29;;;;;;;0.10;0.10;;;10.30;99.90;;;;;;6160837;23;20059;-91
2022/12/21 14:14:28;;;;;;;0.10;0.10;;;10.20;99.90;;;;;;6159105;23;20009;-92
2022/12/21 14:17:02;;;;;;;0.10;0.10;;;10.20;99.90;;;;;;6159008;23;20575;-91
2022/12/21 14:19:28;;;;;;;0.00;0.00;;;;;;;;;;6160136;23;20071;-91
2022/12/21 14:21:54;;;;;;;0.10;0.10;;;;;;;;;;6162366;23;20001;-91
2022/12/21 14:24:32;;;;;;;0.03;0.03;;;10.00;99.90;;;;;;6167196;23;20124;-92
2022/12/21 14:26:58;;;;;;;0.00;0.00;;;10.00;99.90;;;;;;6167673;23;20005;-91
2022/12/21 14:29:40;;;;;;;0.10;0.10;;;10.60;99.90;;;;;;6166048;23;20056;-92
2022/12/21 14:32:09;;;;;;;0.00;0.00;;;10.00;99.90;;;;;;6165444;23;20008;-91
2022/12/21 14:34:46;;;;;;;0.10;0.10;;;9.80;99.90;;;;;;6163395;23;20009;-91
2022/12/21 14:37:12;;;;;;;0.10;0.10;;;9.80;99.90;;;;;;6162187;23;20047;-92
2022/12/21 14:39:41;;;;;;;0.05;0.05;;;9.80;99.90;;;;;;6158183;23;20001;-90
2022/12/21 14:42:35;;;;;;;0.10;0.10;;;9.70;99.90;;;;;;6160899;23;20040;-90
2022/12/21 14:45:12;;;;;;;0.10;0.10;;;9.80;99.90;;;;;;6162411;23;19997;-90
2022/12/21 14:47:57;;;;;;;0.00;0.00;;;9.70;99.90;;;;;;6159743;23;20080;-91
2022/12/21 14:50:23;;;;;;;0.10;0.10;;;;;;;;;;6160341;23;20012;-91
2022/12/21 14:53:00;;;;;;;0.10;0.10;;;9.60;99.90;;;;;;6153393;23;20096;-91
2022/12/21 14:55:42;;;;;;;0.10;0.10;;;9.40;99.90;;;;;;6158715;23;20005;-92
2022/12/21 14:58:24;;;;;;;0.10;0.10;;;9.40;99.90;;;;;;6155166;23;20020;-90
2022/12/21 15:01:17;;;;;;;0.10;0.10;;;9.30;99.90;;;;;;6155788;23;20001;-92
2022/12/21 15:04:14;;;;;;;0.10;0.10;;;9.20;99.90;;;;;;6162540;23;20001;-90
2022/12/21 15:06:42;;;;;;;0.10;0.10;;;9.20;99.90;;;;;;6161168;23;20063;-90
2022/12/21 15:09:26;;;;;;;0.10;0.10;;;9.20;99.90;;;;;;6160648;23;20056;-92
2022/12/21 15:12:12;;;;;;;0.10;0.10;;;9.20;99.90;;;;;;6161538;23;20001;-91
2022/12/21 15:14:42;;;;;;;0.10;0.10;;;9.20;99.90;;;;;;6163705;23;20004;-91
2022/12/21 15:17:23;;;;;;;0.10;0.10;;;9.20;99.90;;;;;;6162561;23;20458;-92
2022/12/21 15:19:59;;;;;;;0.10;0.10;;;9.20;99.90;;;;;;6162980;23;20001;-93
2022/12/21 15:22:50;;;;;;;0.10;0.10;;;9.10;99.90;;;;;;6161782;23;20001;-91
2022/12/21 15:25:28;;;;;;;0.10;0.10;;;9.10;99.90;;;;;;6157670;23;20004;-92
2022/12/21 15:28:16;;;;;;;0.10;0.10;;;9.00;99.90;;;;;;6163557;23;20009;-91
2022/12/21 15:30:52;;;;;;;0.10;0.10;;;8.90;99.90;;;;;;6162388;23;20009;-90
2022/12/21 15:33:18;;;;;;;0.10;0.10;;;;;;;;;;6160623;23;20084;-90
2022/12/21 15:35:48;;;;;;;0.10;0.10;;;9.00;99.90;;;;;;6164129;23;20012;-91
2022/12/21 15:38:19;;;;;;;0.10;0.10;;;8.80;99.90;;;;;;6165572;23;20238;-91
2022/12/21 15:40:58;;;;;;;0.10;0.10;;;8.80;99.90;;;;;;6164629;23;20092;-91
2022/12/21 15:43:38;;;;;;;0.10;0.10;;;8.80;99.90;;;;;;6163950;23;20005;-91
2022/12/21 15:46:14;;;;;;;0.10;0.10;;;8.70;99.90;;;;;;6166118;23;20028;-91
2022/12/21 15:48:49;;;;;;;0.10;0.10;;;8.60;99.90;;;;;;6165306;23;20005;-91
2022/12/21 15:51:27;;;;;;;0.10;0.10;;;8.50;99.90;;;;;;6165893;23;20013;-92
2022/12/21 15:54:13;;;;;;;0.10;0.10;;;8.50;99.90;;;;;;6169695;23;20016;-94
2022/12/21 15:56:53;;;;;;;0.10;0.10;;;8.40;99.90;;;;;;6171709;23;20407;-90
2022/12/21 15:59:34;;;;;;;0.10;0.10;;;8.40;99.90;;;;;;6175130;23;20005;-92